createdAt,value
2019-01-29T00:01:03.041Z,1.60
2019-01-29T00:03:35.050Z,1.60
2019-01-29T00:06:08.876Z,1.60
2019-01-29T00:08:40.882Z,1.60
2019-01-29T00:11:12.789Z,1.70
2019-01-29T00:13:44.693Z,1.70
2019-01-29T00:16:16.711Z,1.70
2019-01-29T00:18:48.618Z,1.60
2019-01-29T00:21:20.524Z,1.70
2019-01-29T00:23:52.432Z,1.70
2019-01-29T00:26:24.321Z,1.70
2019-01-29T00:28:56.334Z,1.70
2019-01-29T00:31:28.235Z,1.70
2019-01-29T00:34:00.147Z,1.70
2019-01-29T00:36:32.051Z,1.70
2019-01-29T00:39:05.471Z,1.70
2019-01-29T00:41:37.365Z,1.70
2019-01-29T00:44:09.279Z,1.70
2019-01-29T00:46:41.179Z,1.70
2019-01-29T00:49:13.080Z,1.70
2019-01-29T00:51:44.983Z,1.70
2019-01-29T00:54:16.902Z,1.70
2019-01-29T00:56:48.803Z,1.70
2019-01-29T00:59:20.699Z,1.70
2019-01-29T01:01:52.615Z,1.60
2019-01-29T01:04:24.643Z,1.60
2019-01-29T01:06:56.621Z,1.60
2019-01-29T01:09:28.559Z,1.60
2019-01-29T01:12:00.460Z,1.60
2019-01-29T01:14:32.359Z,1.60
2019-01-29T01:17:04.370Z,1.60
2019-01-29T01:19:36.278Z,1.60
2019-01-29T01:22:08.390Z,1.60
2019-01-29T01:24:40.294Z,1.60
2019-01-29T01:27:12.298Z,1.60
2019-01-29T01:29:44.437Z,1.60
2019-01-29T01:32:16.347Z,1.60
2019-01-29T01:34:48.268Z,1.60
2019-01-29T01:37:20.184Z,1.50
2019-01-29T01:39:52.099Z,1.50
2019-01-29T01:42:24.007Z,1.50
2019-01-29T01:44:55.922Z,1.50
2019-01-29T01:47:27.830Z,1.40
2019-01-29T01:49:59.732Z,1.40
2019-01-29T01:52:31.642Z,1.40
2019-01-29T01:55:03.548Z,1.40
2019-01-29T01:57:35.457Z,1.40
2019-01-29T02:00:09.260Z,1.40
2019-01-29T02:02:41.171Z,1.40
2019-01-29T02:05:13.379Z,1.50
2019-01-29T02:07:45.586Z,1.50
2019-01-29T02:10:24.473Z,1.50
2019-01-29T02:12:56.413Z,1.50
2019-01-29T02:15:28.621Z,1.50
2019-01-29T02:18:00.601Z,1.50
2019-01-29T02:20:32.610Z,1.40
2019-01-29T02:23:08.227Z,1.40
2019-01-29T02:25:38.230Z,1.40
2019-01-29T02:28:10.234Z,1.40
2019-01-29T02:30:42.155Z,1.30
2019-01-29T02:33:14.052Z,1.30
2019-01-29T02:35:45.969Z,1.40
2019-01-29T02:38:17.867Z,1.40
2019-01-29T02:40:49.783Z,1.40
2019-01-29T02:43:21.739Z,1.40
2019-01-29T02:45:53.688Z,1.30
2019-01-29T02:48:25.593Z,1.30
2019-01-29T02:50:57.504Z,1.30
2019-01-29T02:53:29.409Z,1.20
2019-01-29T02:56:01.326Z,1.30
2019-01-29T02:58:33.226Z,1.20
2019-01-29T03:01:05.343Z,1.30
2019-01-29T03:03:37.246Z,1.30
2019-01-29T03:06:09.467Z,1.40
2019-01-29T03:08:41.482Z,1.40
2019-01-29T03:11:13.423Z,1.40
2019-01-29T03:13:45.321Z,1.50
2019-01-29T03:16:17.229Z,1.50
2019-01-29T03:18:49.157Z,1.60
2019-01-29T03:21:21.053Z,1.50
2019-01-29T03:23:53.067Z,1.50
2019-01-29T03:26:24.970Z,1.50
2019-01-29T03:28:56.879Z,1.50
2019-01-29T03:31:28.761Z,1.50
2019-01-29T03:34:00.649Z,1.40
2019-01-29T03:36:32.525Z,1.40
2019-01-29T03:39:06.089Z,1.50
2019-01-29T03:41:38.153Z,1.50
2019-01-29T03:44:10.050Z,1.50
2019-01-29T03:46:41.963Z,1.40
2019-01-29T03:49:13.864Z,1.50
2019-01-29T03:51:45.767Z,1.50
2019-01-29T03:54:17.677Z,1.50
2019-01-29T03:56:49.582Z,1.50
2019-01-29T03:59:21.479Z,1.60
2019-01-29T04:01:53.478Z,1.60
2019-01-29T04:04:25.382Z,1.60
2019-01-29T04:06:57.292Z,1.60
2019-01-29T04:09:29.194Z,1.60
2019-01-29T04:12:01.155Z,1.60
2019-01-29T04:14:33.040Z,1.60
2019-01-29T04:17:05.043Z,1.60
2019-01-29T04:19:36.952Z,1.60
2019-01-29T04:22:08.857Z,1.70
2019-01-29T04:24:40.760Z,1.70
2019-01-29T04:27:12.652Z,1.60
2019-01-29T04:29:44.574Z,1.60
2019-01-29T04:32:16.469Z,1.70
2019-01-29T04:34:48.374Z,1.70
2019-01-29T04:37:20.278Z,1.70
2019-01-29T04:39:52.190Z,1.70
2019-01-29T04:42:24.098Z,1.70
2019-01-29T04:44:56.007Z,1.70
2019-01-29T04:47:27.912Z,1.70
2019-01-29T04:49:59.821Z,1.70
2019-01-29T04:52:31.850Z,1.70
2019-01-29T04:55:03.940Z,1.70
2019-01-29T04:57:35.907Z,1.70
2019-01-29T05:00:11.785Z,1.70
2019-01-29T05:02:43.700Z,1.70
2019-01-29T05:05:16.205Z,1.70
2019-01-29T05:07:48.152Z,1.70
2019-01-29T05:10:20.810Z,1.70
2019-01-29T05:12:52.907Z,1.60
2019-01-29T05:15:24.916Z,1.60
2019-01-29T05:17:56.812Z,1.50
2019-01-29T05:20:28.715Z,1.60
2019-01-29T05:23:00.614Z,1.60
2019-01-29T05:25:32.526Z,1.60
2019-01-29T05:28:04.526Z,1.60
2019-01-29T05:30:36.435Z,1.50
2019-01-29T05:33:08.443Z,1.50
2019-01-29T05:35:40.346Z,1.40
2019-01-29T05:38:12.250Z,1.40
2019-01-29T05:40:44.152Z,1.40
2019-01-29T05:43:16.059Z,1.20
2019-01-29T05:45:47.954Z,1.20
2019-01-29T05:48:19.954Z,1.20
2019-01-29T05:50:51.847Z,1.20
2019-01-29T05:53:23.757Z,1.20
2019-01-29T05:55:55.658Z,1.20
2019-01-29T05:58:27.769Z,1.30
2019-01-29T06:00:59.720Z,1.30
2019-01-29T06:03:31.634Z,1.40
2019-01-29T06:06:03.669Z,1.50
2019-01-29T06:08:35.680Z,1.50
2019-01-29T06:11:07.799Z,1.60
2019-01-29T06:13:39.824Z,1.50
2019-01-29T06:16:11.941Z,1.60
2019-01-29T06:18:43.962Z,1.50
2019-01-29T06:21:15.988Z,1.50
2019-01-29T06:23:48.019Z,1.50
2019-01-29T06:26:20.154Z,1.50
2019-01-29T06:28:52.159Z,1.50
2019-01-29T06:31:24.109Z,1.60
2019-01-29T06:33:56.013Z,1.60
2019-01-29T06:36:27.918Z,1.60
2019-01-29T06:38:59.818Z,1.60
2019-01-29T06:41:31.724Z,1.60
2019-01-29T06:44:03.637Z,1.50
2019-01-29T06:46:35.533Z,1.60
2019-01-29T06:49:07.743Z,1.60
2019-01-29T06:51:39.643Z,1.50
2019-01-29T06:54:11.548Z,1.60
2019-01-29T06:56:43.460Z,1.60
2019-01-29T06:59:15.361Z,1.60
2019-01-29T07:01:47.267Z,1.70
2019-01-29T07:04:19.184Z,1.60
2019-01-29T07:06:51.090Z,1.70
2019-01-29T07:09:23.002Z,1.70
2019-01-29T07:12:04.340Z,1.70
2019-01-29T07:14:36.247Z,1.70
2019-01-29T07:17:32.176Z,1.80
2019-01-29T07:20:07.131Z,1.80
2019-01-29T07:22:39.142Z,1.70
2019-01-29T07:25:12.630Z,1.80
2019-01-29T07:27:44.530Z,1.80
2019-01-29T07:30:17.068Z,1.80
2019-01-29T07:32:49.019Z,1.70
2019-01-29T07:35:20.931Z,1.70
2019-01-29T07:37:52.837Z,1.70
2019-01-29T07:40:24.847Z,1.70
2019-01-29T07:42:56.757Z,1.70
2019-01-29T07:45:28.660Z,1.70
2019-01-29T07:48:00.566Z,1.70
2019-01-29T07:50:32.562Z,1.70
2019-01-29T07:53:04.683Z,1.80
2019-01-29T07:55:36.588Z,1.80
2019-01-29T07:58:08.506Z,1.80
2019-01-29T08:00:42.213Z,1.80
2019-01-29T08:03:14.082Z,1.80
2019-01-29T08:05:45.996Z,1.80
2019-01-29T08:08:17.916Z,1.80
2019-01-29T08:10:49.818Z,1.80
2019-01-29T08:13:21.726Z,1.80
2019-01-29T08:15:53.739Z,1.80
2019-01-29T08:18:25.651Z,1.80
2019-01-29T08:20:57.569Z,1.80
2019-01-29T08:23:29.490Z,1.80
2019-01-29T08:26:01.389Z,1.90
2019-01-29T08:28:33.327Z,1.90
2019-01-29T08:31:05.356Z,2.00
2019-01-29T08:33:37.262Z,2.00
2019-01-29T08:36:09.269Z,2.10
2019-01-29T08:38:41.180Z,2.10
2019-01-29T08:41:13.087Z,2.10
2019-01-29T08:43:44.996Z,2.00
2019-01-29T08:46:16.905Z,2.00
2019-01-29T08:48:48.843Z,2.10
2019-01-29T08:51:20.739Z,2.10
2019-01-29T08:53:52.651Z,2.20
2019-01-29T08:56:24.676Z,2.20
2019-01-29T08:58:56.676Z,2.30
2019-01-29T09:01:28.552Z,2.30
2019-01-29T09:04:00.567Z,2.20
2019-01-29T09:06:32.473Z,2.20
2019-01-29T09:09:07.720Z,2.20
2019-01-29T09:11:39.727Z,2.30
2019-01-29T09:14:11.640Z,2.30
2019-01-29T09:16:43.536Z,2.40
2019-01-29T09:19:15.451Z,2.40
2019-01-29T09:21:47.352Z,2.40
2019-01-29T09:24:19.297Z,2.40
2019-01-29T09:26:51.205Z,2.40
2019-01-29T09:29:23.116Z,2.40
2019-01-29T09:31:55.026Z,2.40
2019-01-29T09:34:27.031Z,2.40
2019-01-29T09:36:59.040Z,2.40
2019-01-29T09:39:30.948Z,2.40
2019-01-29T09:42:02.957Z,2.50
2019-01-29T09:44:34.980Z,2.40
2019-01-29T09:47:07.562Z,2.50
2019-01-29T09:49:39.474Z,2.60
2019-01-29T09:52:11.386Z,2.60
2019-01-29T09:54:43.290Z,2.60
2019-01-29T09:57:15.191Z,2.60
2019-01-29T09:59:47.112Z,2.70
2019-01-29T10:02:19.021Z,2.60
2019-01-29T10:04:50.929Z,2.60
2019-01-29T10:07:22.839Z,2.60
2019-01-29T10:09:54.746Z,2.50
2019-01-29T10:12:26.647Z,2.50
2019-01-29T10:14:58.564Z,2.60
2019-01-29T10:17:30.842Z,2.70
2019-01-29T10:20:03.367Z,2.80
2019-01-29T10:22:35.338Z,2.90
2019-01-29T10:25:09.337Z,2.80
2019-01-29T10:27:41.246Z,2.90
2019-01-29T10:30:13.819Z,2.90
2019-01-29T10:32:45.914Z,3.00
2019-01-29T10:35:19.603Z,3.00
2019-01-29T10:37:51.617Z,3.00
2019-01-29T10:40:25.247Z,3.00
2019-01-29T10:42:58.275Z,3.00
2019-01-29T10:45:31.395Z,3.00
2019-01-29T10:48:03.304Z,3.10
2019-01-29T10:50:35.422Z,3.00
2019-01-29T10:53:07.671Z,3.10
2019-01-29T10:55:46.944Z,3.10
2019-01-29T10:58:13.298Z,3.30
2019-01-29T11:00:45.202Z,3.30
2019-01-29T11:03:17.109Z,3.30
2019-01-29T11:05:49.032Z,3.40
2019-01-29T11:08:20.939Z,3.40
2019-01-29T11:10:52.967Z,3.40
2019-01-29T11:13:24.843Z,3.50
2019-01-29T11:15:56.757Z,3.50
2019-01-29T11:18:28.667Z,3.60
2019-01-29T11:21:00.571Z,3.60
2019-01-29T11:23:32.471Z,3.60
2019-01-29T11:26:05.363Z,3.60
2019-01-29T11:28:37.271Z,3.60
2019-01-29T11:31:09.479Z,3.60
2019-01-29T11:33:41.406Z,3.60
2019-01-29T11:36:13.422Z,3.70
2019-01-29T11:38:45.331Z,3.70
2019-01-29T11:41:17.338Z,3.60
2019-01-29T11:43:49.254Z,3.60
2019-01-29T11:46:21.264Z,3.60
2019-01-29T11:48:53.175Z,3.70
2019-01-29T11:51:25.092Z,3.80
2019-01-29T11:53:57.007Z,4.00
2019-01-29T11:56:28.922Z,4.10
2019-01-29T11:59:00.826Z,4.20
2019-01-29T12:01:32.739Z,4.30
2019-01-29T12:04:04.742Z,4.30
2019-01-29T12:06:36.652Z,4.30
2019-01-29T12:09:11.149Z,4.20
2019-01-29T12:11:43.255Z,4.20
2019-01-29T12:14:15.162Z,4.20
2019-01-29T12:16:47.075Z,4.10
2019-01-29T12:19:18.975Z,4.10
2019-01-29T12:21:50.876Z,4.00
2019-01-29T12:24:22.784Z,3.90
2019-01-29T12:26:54.738Z,3.80
2019-01-29T12:29:26.655Z,3.80
2019-01-29T12:31:58.889Z,3.80
2019-01-29T12:34:30.758Z,3.80
2019-01-29T12:37:02.670Z,3.80
2019-01-29T12:39:34.581Z,3.90
2019-01-29T12:42:06.598Z,3.90
2019-01-29T12:44:38.500Z,3.90
2019-01-29T12:47:10.410Z,3.90
2019-01-29T12:49:42.311Z,3.90
2019-01-29T12:52:42.183Z,3.90
2019-01-29T12:55:14.392Z,3.90
2019-01-29T12:57:46.305Z,3.90
2019-01-29T13:00:19.213Z,3.80
2019-01-29T13:02:51.131Z,3.90
2019-01-29T13:05:23.113Z,3.80
2019-01-29T13:07:55.426Z,3.80
2019-01-29T13:10:27.644Z,3.80
2019-01-29T13:12:59.555Z,3.80
2019-01-29T13:15:31.878Z,3.80
2019-01-29T13:18:04.093Z,3.80
2019-01-29T13:20:36.002Z,3.90
2019-01-29T13:23:08.005Z,3.90
2019-01-29T13:25:40.127Z,3.90
2019-01-29T13:28:12.170Z,3.90
2019-01-29T13:30:44.074Z,3.90
2019-01-29T13:33:16.926Z,3.90
2019-01-29T13:35:48.900Z,3.90
2019-01-29T13:38:20.810Z,3.90
2019-01-29T13:40:52.712Z,3.80
2019-01-29T13:43:24.653Z,3.80
2019-01-29T13:45:56.535Z,3.90
2019-01-29T13:48:28.553Z,3.90
2019-01-29T13:51:02.572Z,4.00
2019-01-29T13:53:34.482Z,4.00
2019-01-29T13:56:06.808Z,4.00
2019-01-29T13:58:38.710Z,3.90
2019-01-29T14:01:10.734Z,3.80
2019-01-29T14:03:42.643Z,3.70
2019-01-29T14:06:14.553Z,3.60
2019-01-29T14:08:46.766Z,3.60
2019-01-29T14:11:18.672Z,3.60
2019-01-29T14:13:50.573Z,3.70
2019-01-29T14:16:22.488Z,3.70
2019-01-29T14:18:54.406Z,3.70
2019-01-29T14:21:26.319Z,3.60
2019-01-29T14:23:58.228Z,3.70
2019-01-29T14:26:30.257Z,3.60
2019-01-29T14:29:02.239Z,3.70
2019-01-29T14:31:34.268Z,3.70
2019-01-29T14:34:06.595Z,3.80
2019-01-29T14:36:38.745Z,3.70
2019-01-29T14:39:28.540Z,3.70
2019-01-29T14:42:00.723Z,3.70
2019-01-29T14:44:40.318Z,3.80
2019-01-29T14:47:12.439Z,3.80
2019-01-29T14:49:44.462Z,3.80
2019-01-29T14:52:16.514Z,3.70
2019-01-29T14:54:48.535Z,3.80
2019-01-29T14:57:20.550Z,3.70
2019-01-29T14:59:52.579Z,3.60
2019-01-29T15:02:24.613Z,3.60
2019-01-29T15:04:57.729Z,3.60
2019-01-29T15:07:30.642Z,3.60
2019-01-29T15:10:02.734Z,3.60
2019-01-29T15:12:34.713Z,3.50
2019-01-29T15:15:09.664Z,3.40
2019-01-29T15:18:12.253Z,3.40
2019-01-29T15:20:44.168Z,3.30
2019-01-29T15:23:16.078Z,3.00
2019-01-29T15:25:48.099Z,2.90
2019-01-29T15:28:20.003Z,2.70
2019-01-29T15:30:52.015Z,2.50
2019-01-29T15:33:23.914Z,2.40
2019-01-29T15:35:55.930Z,2.20
2019-01-29T15:38:27.830Z,1.90
2019-01-29T15:40:59.939Z,1.70
2019-01-29T15:43:31.850Z,1.50
2019-01-29T15:46:03.715Z,1.40
2019-01-29T15:48:35.617Z,1.30
2019-01-29T15:51:07.953Z,1.20
2019-01-29T15:53:39.959Z,1.10
2019-01-29T15:56:11.875Z,1.00
2019-01-29T15:58:43.773Z,0.90
2019-01-29T16:01:15.808Z,0.90
2019-01-29T16:03:47.677Z,0.90
2019-01-29T16:06:19.574Z,0.80
2019-01-29T16:08:51.664Z,0.80
2019-01-29T16:11:23.574Z,0.80
2019-01-29T16:13:55.485Z,0.80
2019-01-29T16:16:27.391Z,0.70
2019-01-29T16:18:59.341Z,0.70
2019-01-29T16:21:31.235Z,0.50
2019-01-29T16:24:03.155Z,0.40
2019-01-29T16:26:35.063Z,0.30
2019-01-29T16:29:07.194Z,0.30
2019-01-29T16:31:39.484Z,0.30
2019-01-29T16:34:11.388Z,0.40
2019-01-29T16:36:43.287Z,0.50
2019-01-29T16:39:15.201Z,0.60
2019-01-29T16:41:47.109Z,0.60
2019-01-29T16:44:19.020Z,0.60
2019-01-29T16:46:50.926Z,0.50
2019-01-29T16:49:22.841Z,0.50
2019-01-29T16:51:54.733Z,0.40
2019-01-29T16:54:26.641Z,0.40
2019-01-29T16:56:58.547Z,0.30
2019-01-29T16:59:30.463Z,0.30
2019-01-29T17:02:02.433Z,0.20
2019-01-29T17:04:34.359Z,0.10
2019-01-29T17:07:06.271Z,0.00
2019-01-29T17:09:38.225Z,-0.10
2019-01-29T17:12:10.234Z,-0.10
2019-01-29T17:14:42.167Z,-0.20
2019-01-29T17:17:14.060Z,-0.30
2019-01-29T17:19:45.974Z,-0.40
2019-01-29T17:22:17.883Z,-0.40
2019-01-29T17:24:49.911Z,-0.50
2019-01-29T17:27:21.782Z,-0.70
2019-01-29T17:29:53.698Z,-0.80
2019-01-29T17:32:30.530Z,-0.80
2019-01-29T17:34:59.350Z,-0.90
2019-01-29T17:37:31.425Z,-1.10
2019-01-29T17:40:03.628Z,-1.20
2019-01-29T17:42:35.635Z,-1.20
2019-01-29T17:45:10.161Z,-1.30
2019-01-29T17:47:42.159Z,-1.30
2019-01-29T17:50:21.829Z,-1.40
2019-01-29T17:52:53.942Z,-1.50
2019-01-29T17:55:26.636Z,-1.70
2019-01-29T17:57:58.758Z,-1.80
2019-01-29T18:00:32.928Z,-2.00
2019-01-29T18:03:05.438Z,-2.10
2019-01-29T18:05:37.833Z,-2.20
2019-01-29T18:08:09.833Z,-2.20
2019-01-29T18:10:42.047Z,-2.40
2019-01-29T18:13:14.151Z,-2.40
2019-01-29T18:15:46.384Z,-2.50
2019-01-29T18:18:18.385Z,-2.50
2019-01-29T18:20:50.384Z,-2.50
2019-01-29T18:23:22.376Z,-2.40
2019-01-29T18:25:54.366Z,-2.50
2019-01-29T18:28:26.368Z,-2.40
2019-01-29T18:30:58.367Z,-2.40
2019-01-29T18:33:30.438Z,-2.50
2019-01-29T18:36:02.426Z,-2.60
2019-01-29T18:38:34.427Z,-2.60
2019-01-29T18:41:06.479Z,-2.50
2019-01-29T18:43:38.488Z,-2.50
2019-01-29T18:46:10.483Z,-2.40
2019-01-29T18:48:42.475Z,-2.40
2019-01-29T18:51:14.472Z,-2.50
2019-01-29T18:53:47.612Z,-2.30
2019-01-29T18:56:19.612Z,-2.30
2019-01-29T18:58:51.611Z,-2.20
2019-01-29T19:01:23.606Z,-2.30
2019-01-29T19:03:55.613Z,-2.40
2019-01-29T19:06:27.675Z,-2.40
2019-01-29T19:08:59.667Z,-2.40
2019-01-29T19:11:31.666Z,-2.50
2019-01-29T19:14:03.755Z,-2.60
2019-01-29T19:16:35.886Z,-2.60
2019-01-29T19:19:07.875Z,-2.60
2019-01-29T19:21:39.881Z,-2.60
2019-01-29T19:24:11.868Z,-2.60
2019-01-29T19:26:43.880Z,-2.50
2019-01-29T19:29:15.909Z,-2.50
2019-01-29T19:31:47.907Z,-2.50
2019-01-29T19:34:19.896Z,-2.40
2019-01-29T19:36:51.890Z,-2.40
2019-01-29T19:39:24.000Z,-2.50
2019-01-29T19:41:56.005Z,-2.60
2019-01-29T19:44:28.014Z,-2.60
2019-01-29T19:47:00.116Z,-2.70
2019-01-29T19:49:32.114Z,-2.70
2019-01-29T19:52:04.118Z,-2.80
2019-01-29T19:54:36.112Z,-2.70
2019-01-29T19:57:08.127Z,-2.80
2019-01-29T19:59:40.116Z,-2.80
2019-01-29T20:02:12.269Z,-2.80
2019-01-29T20:04:44.359Z,-2.80
2019-01-29T20:07:16.374Z,-2.80
2019-01-29T20:09:48.435Z,-2.90
2019-01-29T20:12:20.459Z,-3.00
2019-01-29T20:14:52.465Z,-3.00
2019-01-29T20:17:24.460Z,-3.00
2019-01-29T20:19:56.459Z,-2.80
2019-01-29T20:22:28.471Z,-2.60
2019-01-29T20:25:00.461Z,-2.40
2019-01-29T20:27:32.459Z,-2.30
2019-01-29T20:30:05.030Z,-2.20
2019-01-29T20:32:37.038Z,-2.20
2019-01-29T20:35:09.420Z,-2.30
2019-01-29T20:37:41.506Z,-2.40
2019-01-29T20:40:16.702Z,-2.50
2019-01-29T20:42:48.968Z,-2.50
2019-01-29T20:45:21.247Z,-2.60
2019-01-29T20:47:53.244Z,-2.60
2019-01-29T20:50:34.643Z,-2.60
2019-01-29T20:53:06.835Z,-2.50
2019-01-29T20:55:38.890Z,-2.50
2019-01-29T20:58:10.920Z,-2.50
2019-01-29T21:00:43.335Z,-2.50
2019-01-29T21:03:15.330Z,-2.40
2019-01-29T21:05:47.397Z,-2.40
2019-01-29T21:08:19.397Z,-2.40
2019-01-29T21:10:51.392Z,-2.30
2019-01-29T21:13:23.427Z,-2.30
2019-01-29T21:15:55.418Z,-2.20
2019-01-29T21:18:27.420Z,-2.20
2019-01-29T21:20:59.498Z,-2.20
2019-01-29T21:23:31.573Z,-2.30
2019-01-29T21:26:03.568Z,-2.30
2019-01-29T21:28:35.558Z,-2.40
2019-01-29T21:31:07.666Z,-2.40
2019-01-29T21:33:39.650Z,-2.40
2019-01-29T21:36:11.642Z,-2.30
2019-01-29T21:38:43.646Z,-2.30
2019-01-29T21:41:15.638Z,-2.20
2019-01-29T21:43:47.711Z,-2.20
2019-01-29T21:46:19.704Z,-2.20
2019-01-29T21:48:51.704Z,-2.20
2019-01-29T21:51:23.703Z,-2.20
2019-01-29T21:53:55.783Z,-2.30
2019-01-29T21:56:27.775Z,-2.40
2019-01-29T21:58:59.778Z,-2.50
2019-01-29T22:01:31.796Z,-2.50
2019-01-29T22:04:05.004Z,-2.50
2019-01-29T22:06:36.991Z,-2.50
2019-01-29T22:09:11.323Z,-2.50
2019-01-29T22:11:43.318Z,-2.50
2019-01-29T22:14:15.451Z,-2.40
2019-01-29T22:16:47.570Z,-2.40
2019-01-29T22:19:19.574Z,-2.40
2019-01-29T22:21:51.568Z,-2.40
2019-01-29T22:24:23.577Z,-2.40
2019-01-29T22:26:55.647Z,-2.50
2019-01-29T22:29:27.650Z,-2.50
2019-01-29T22:31:59.649Z,-2.50
2019-01-29T22:34:31.644Z,-2.50
2019-01-29T22:37:03.644Z,-2.50
2019-01-29T22:39:35.638Z,-2.50
2019-01-29T22:42:07.937Z,-2.60
2019-01-29T22:44:39.948Z,-2.60
2019-01-29T22:47:11.960Z,-2.60
2019-01-29T22:49:44.026Z,-2.70
2019-01-29T22:52:16.031Z,-2.70
2019-01-29T22:54:48.026Z,-2.60
2019-01-29T22:57:20.015Z,-2.60
2019-01-29T22:59:52.014Z,-2.60
2019-01-29T23:02:24.010Z,-2.50
2019-01-29T23:04:56.010Z,-2.50
2019-01-29T23:07:35.638Z,-2.40
2019-01-29T23:10:14.765Z,-2.40
2019-01-29T23:12:46.839Z,-2.40
2019-01-29T23:15:20.209Z,-2.40
2019-01-29T23:17:53.094Z,-2.30
2019-01-29T23:20:25.539Z,-2.30
2019-01-29T23:22:57.540Z,-2.30
2019-01-29T23:25:29.619Z,-2.40
2019-01-29T23:28:01.619Z,-2.40
2019-01-29T23:30:33.616Z,-2.40
2019-01-29T23:33:05.883Z,-2.40
2019-01-29T23:35:37.888Z,-2.40
2019-01-29T23:38:09.882Z,-2.40
2019-01-29T23:40:41.991Z,-2.40
2019-01-29T23:43:13.985Z,-2.40
2019-01-29T23:45:45.993Z,-2.40
2019-01-29T23:48:18.024Z,-2.50
2019-01-29T23:50:50.025Z,-2.50
2019-01-29T23:53:22.017Z,-2.50
2019-01-29T23:55:54.093Z,-2.60
2019-01-29T23:58:26.864Z,-2.60
